Shantou, China
Current Conditions -  °F | °C
As of 8:00 PM on Friday 24 Oct 2014 (Local Time) from ZGOW Reporting Station
Scattered Clouds Scattered Clouds  
Wind Chill: 75°   Ceiling: Unl
Heat Index: 75°   Visibility: 6mi
Dew Point: 66°   Wind: 7mph
Humidity: 73%   Direction: 110°ESE
Pressure: 30.03"   Gusts: NA
Location:  23.37°N, 116.67°E
Report Text: ZGOW 241200Z 11003MPS 9999 SCT040 24/19 Q1017 NOSIG
Loading
Personal Weather Stations






























Interactive Weather Map
Tropical Storm Tracking
New forecast layout! Learn more

10-Day Weather Forecast

Advertisements
Track Severe Weather on mobile